createdAt,value
2023-03-17T09:43:38.726Z,101632.16
2023-03-17T09:45:43.682Z,101632.16
2023-03-17T09:48:03.001Z,101633.09
2023-03-17T09:50:13.047Z,101643.97
2023-03-17T09:52:18.798Z,101639.87
2023-03-17T09:54:33.261Z,101639.69
2023-03-17T09:56:37.822Z,101626.81
2023-03-17T09:58:48.987Z,101635.34
2023-03-17T10:00:52.420Z,101619.84
2023-03-17T10:02:59.004Z,101619.13
2023-03-17T10:05:28.958Z,101616.41
2023-03-17T10:07:42.280Z,101609.19
2023-03-17T10:10:29.341Z,101612.72
2023-03-17T10:12:56.506Z,101593.25
2023-03-17T10:15:06.841Z,101592.87
2023-03-17T10:17:42.332Z,101603.19
2023-03-17T10:19:54.636Z,101610.53
2023-03-17T10:22:29.422Z,101603.50
2023-03-17T10:24:34.150Z,101602.81
2023-03-17T10:26:57.987Z,101596.63
2023-03-17T10:29:04.369Z,101589.84
2023-03-17T10:31:13.852Z,101584.84
2023-03-17T10:33:16.612Z,101581.63
2023-03-17T10:35:19.806Z,101585.19
2023-03-17T10:37:24.026Z,101593.03
2023-03-17T10:39:27.127Z,101585.75
2023-03-17T10:41:30.237Z,101584.75
2023-03-17T10:43:44.686Z,101586.91
2023-03-17T10:46:00.965Z,101578.19
2023-03-17T10:48:08.487Z,101575.97
2023-03-17T10:50:23.017Z,101588.25
2023-03-17T10:52:28.661Z,101599.00
2023-03-17T10:54:36.021Z,101591.16
2023-03-17T10:56:42.428Z,101593.97
2023-03-17T10:58:55.604Z,101582.59
2023-03-17T11:01:05.860Z,101591.66
2023-03-17T11:03:24.673Z,101579.09
2023-03-17T11:05:29.986Z,101572.84
2023-03-17T11:07:40.376Z,101562.03
2023-03-17T11:09:42.806Z,101569.44
2023-03-17T11:11:48.667Z,101568.75
2023-03-17T11:13:51.894Z,101563.25
2023-03-17T11:16:07.427Z,101557.03
2023-03-17T11:18:34.692Z,101553.41
2023-03-17T11:21:01.663Z,101546.94
2023-03-17T11:23:24.304Z,101554.03
2023-03-17T11:25:28.340Z,101548.91
2023-03-17T11:27:34.358Z,101549.13
2023-03-17T11:29:36.693Z,101551.19
2023-03-17T11:31:55.994Z,101552.19
2023-03-17T11:34:14.415Z,101559.34
2023-03-17T11:36:36.328Z,101570.53
2023-03-17T11:39:23.376Z,101573.19
2023-03-17T11:42:10.923Z,101566.66
2023-03-17T11:44:16.011Z,101558.56
2023-03-17T11:46:27.596Z,101542.06
2023-03-17T11:48:55.678Z,101531.66
2023-03-17T11:51:13.455Z,101513.69
2023-03-17T11:53:31.588Z,101524.00
2023-03-17T11:55:48.491Z,101515.41
2023-03-17T11:58:05.246Z,101498.75
2023-03-17T12:00:20.893Z,101487.28
2023-03-17T12:02:32.181Z,101495.50
2023-03-17T12:04:38.699Z,101501.13
2023-03-17T12:06:52.855Z,101491.06
2023-03-17T12:09:03.368Z,101489.56
2023-03-17T12:11:12.385Z,101466.25
2023-03-17T12:13:18.051Z,101466.50
2023-03-17T12:15:56.053Z,101450.13
2023-03-17T12:18:04.327Z,101437.94
2023-03-17T12:20:27.941Z,101452.84
2023-03-17T12:22:38.291Z,101452.16
2023-03-17T12:25:11.536Z,101457.19
2023-03-17T12:27:17.943Z,101449.78
2023-03-17T12:29:32.803Z,101443.37
2023-03-17T12:31:39.307Z,101433.56
2023-03-17T12:33:58.887Z,101429.44
2023-03-17T12:36:02.772Z,101433.78
2023-03-17T12:38:18.996Z,101417.75
2023-03-17T12:40:41.601Z,101421.88
2023-03-17T12:43:17.527Z,101418.38
2023-03-17T12:45:58.317Z,101403.78
2023-03-17T12:48:04.159Z,101400.13
2023-03-17T12:50:16.004Z,101397.06
2023-03-17T12:52:27.522Z,101388.28
2023-03-17T12:54:33.712Z,101380.50
2023-03-17T12:56:36.767Z,101374.19
2023-03-17T12:58:44.139Z,101387.53
2023-03-17T13:00:59.270Z,101373.84
2023-03-17T13:03:15.902Z,101380.72
2023-03-17T13:05:30.990Z,101372.59
2023-03-17T13:07:56.213Z,101370.59
2023-03-17T13:09:59.111Z,101370.19
2023-03-17T13:12:03.396Z,101360.38
2023-03-17T13:14:15.565Z,101349.63
2023-03-17T13:16:33.927Z,101350.53
2023-03-17T13:18:36.741Z,101343.44
2023-03-17T13:20:51.712Z,101343.62
2023-03-17T13:23:15.121Z,101343.22
2023-03-17T13:25:49.889Z,101325.44
2023-03-17T13:27:52.613Z,101327.97
2023-03-17T13:29:55.088Z,101326.72
2023-03-17T13:32:15.916Z,101324.06
2023-03-17T13:34:20.721Z,101328.75
2023-03-17T13:36:38.351Z,101329.16
2023-03-17T13:39:18.638Z,101331.56
2023-03-17T13:41:28.108Z,101320.16
2023-03-17T13:44:07.899Z,101322.38
2023-03-17T13:46:31.773Z,101318.72
2023-03-17T13:48:38.238Z,101321.56
2023-03-17T13:50:42.385Z,101322.06
2023-03-17T13:52:57.610Z,101312.59
2023-03-17T13:55:18.529Z,101305.00
2023-03-17T13:57:39.240Z,101304.59
2023-03-17T13:59:50.810Z,101298.44
2023-03-17T14:02:16.835Z,101298.53
2023-03-17T14:04:24.968Z,101298.78
2023-03-17T14:06:31.387Z,101306.53
2023-03-17T14:08:42.786Z,101284.75
2023-03-17T14:10:54.422Z,101300.06
2023-03-17T14:13:21.835Z,101289.06
2023-03-17T14:15:46.534Z,101275.50
2023-03-17T14:18:11.023Z,101272.53
2023-03-17T14:20:13.403Z,101275.81
2023-03-17T14:22:22.258Z,101266.88
2023-03-17T14:24:29.763Z,101259.59
2023-03-17T14:26:32.762Z,101253.75
2023-03-17T14:28:36.038Z,101243.16
2023-03-17T14:30:39.271Z,101232.03
2023-03-17T14:32:48.030Z,101231.75
2023-03-17T14:34:56.849Z,101222.16
2023-03-17T14:37:04.358Z,101226.78
2023-03-17T14:39:07.318Z,101215.34
2023-03-17T14:41:15.658Z,101210.37
2023-03-17T14:43:18.367Z,101218.03
2023-03-17T14:45:20.899Z,101203.53
2023-03-17T14:47:25.984Z,101206.56
2023-03-17T14:49:28.900Z,101197.34
2023-03-17T14:51:36.245Z,101197.91
2023-03-17T14:53:44.969Z,101195.12
2023-03-17T14:55:48.340Z,101186.66
2023-03-17T14:57:52.680Z,101189.00
2023-03-17T15:00:00.380Z,101180.44
2023-03-17T15:02:27.983Z,101184.41
2023-03-17T15:04:33.626Z,101167.00
2023-03-17T15:06:37.511Z,101171.22
2023-03-17T15:08:48.167Z,101167.47
2023-03-17T15:10:50.625Z,101172.06
2023-03-17T15:13:04.996Z,101168.19
2023-03-17T15:15:24.303Z,101161.44
2023-03-17T15:17:31.250Z,101154.44
2023-03-17T15:19:49.021Z,101157.91
2023-03-17T15:21:52.200Z,101147.00
2023-03-17T15:23:54.654Z,101147.66
2023-03-17T15:25:57.369Z,101144.97
2023-03-17T15:28:00.459Z,101151.50
2023-03-17T15:30:03.279Z,101149.97
2023-03-17T15:32:15.337Z,101144.84
2023-03-17T15:34:18.102Z,101140.66
2023-03-17T15:36:31.882Z,101135.22
2023-03-17T15:38:38.950Z,101119.19
2023-03-17T15:40:41.752Z,101120.53
2023-03-17T15:42:45.454Z,101125.88
2023-03-17T15:44:48.017Z,101124.84
2023-03-17T15:46:51.203Z,101115.75
2023-03-17T15:48:53.731Z,101116.59
2023-03-17T15:50:57.720Z,101116.09
2023-03-17T15:53:00.525Z,101110.63
2023-03-17T15:55:06.846Z,101113.97
2023-03-17T15:57:12.761Z,101104.84
2023-03-17T15:59:15.735Z,101112.16
2023-03-17T16:01:19.067Z,101106.72
2023-03-17T16:03:29.748Z,101102.03
2023-03-17T16:05:35.036Z,101097.06
2023-03-17T16:07:39.639Z,101096.50
2023-03-17T16:09:42.304Z,101104.37
2023-03-17T16:11:44.758Z,101104.22
2023-03-17T16:13:47.661Z,101101.94
2023-03-17T16:15:58.728Z,101100.12
2023-03-17T16:18:04.826Z,101100.63
2023-03-17T16:20:17.440Z,101101.03
2023-03-17T16:22:41.945Z,101100.69
2023-03-17T16:24:44.760Z,101097.09
2023-03-17T16:26:47.644Z,101089.81
2023-03-17T16:28:50.891Z,101101.94
2023-03-17T16:30:54.978Z,101094.63
2023-03-17T16:33:08.925Z,101093.84
2023-03-17T16:35:20.753Z,101102.97
2023-03-17T16:37:23.307Z,101099.06
2023-03-17T16:39:26.374Z,101105.63
2023-03-17T16:41:30.569Z,101100.47
2023-03-17T16:43:37.841Z,101103.88
2023-03-17T16:45:40.696Z,101104.50
2023-03-17T16:47:43.513Z,101106.22
2023-03-17T16:49:46.234Z,101109.38
2023-03-17T16:51:50.213Z,101105.22
2023-03-17T16:53:53.252Z,101100.12
2023-03-17T16:55:56.412Z,101095.44
2023-03-17T16:58:03.767Z,101100.50
2023-03-17T17:00:08.545Z,101105.75
2023-03-17T17:02:16.269Z,101109.75
2023-03-17T17:04:18.866Z,101107.22
2023-03-17T17:06:23.471Z,101103.03
2023-03-17T17:08:26.888Z,101103.62
2023-03-17T17:10:33.107Z,101108.72
2023-03-17T17:12:36.081Z,101101.13
2023-03-17T17:14:39.140Z,101109.19
2023-03-17T17:16:42.687Z,101110.22
2023-03-17T17:18:47.526Z,101111.19
2023-03-17T17:20:51.756Z,101107.13
2023-03-17T17:22:59.011Z,101109.00
2023-03-17T17:25:03.520Z,101104.75
2023-03-17T17:27:06.369Z,101105.31
2023-03-17T17:29:10.880Z,101110.63
2023-03-17T17:31:14.326Z,101107.25
2023-03-17T17:33:18.173Z,101111.44
2023-03-17T17:35:24.473Z,101104.72
2023-03-17T17:37:28.266Z,101107.47
2023-03-17T17:39:31.178Z,101107.84
2023-03-17T17:41:34.900Z,101105.63
2023-03-17T17:43:38.851Z,101097.38
2023-03-17T17:45:43.116Z,101097.28
2023-03-17T17:47:46.898Z,101096.41
2023-03-17T17:49:51.358Z,101095.31
2023-03-17T17:51:54.552Z,101099.16
2023-03-17T17:53:59.664Z,101098.03
2023-03-17T17:56:03.777Z,101097.81
2023-03-17T17:58:07.580Z,101102.72
2023-03-17T18:00:15.807Z,101101.91
2023-03-17T18:02:19.902Z,101095.25
2023-03-17T18:04:23.284Z,101095.47
2023-03-17T18:06:26.843Z,101090.34
2023-03-17T18:08:30.725Z,101084.09
2023-03-17T18:10:35.243Z,101091.06
2023-03-17T18:12:38.560Z,101095.50
2023-03-17T18:15:02.416Z,101095.66
2023-03-17T18:17:05.984Z,101101.22
2023-03-17T18:19:11.812Z,101110.09
2023-03-17T18:21:16.361Z,101095.94
2023-03-17T18:23:20.722Z,101098.75
2023-03-17T18:25:27.732Z,101090.13
2023-03-17T18:27:31.459Z,101090.47
2023-03-17T18:29:35.094Z,101079.03
2023-03-17T18:31:42.506Z,101087.75
2023-03-17T18:33:50.238Z,101088.16
2023-03-17T18:35:55.971Z,101090.69
2023-03-17T18:38:00.334Z,101092.81
2023-03-17T18:40:14.308Z,101088.56
2023-03-17T18:44:37.216Z,101102.25
2023-03-17T18:46:41.476Z,101088.44
2023-03-17T18:48:47.878Z,101088.53
2023-03-17T18:50:51.326Z,101091.75
2023-03-17T18:52:57.787Z,101088.63
2023-03-17T18:55:01.170Z,101095.47
2023-03-17T18:57:05.097Z,101105.09
2023-03-17T18:59:10.508Z,101100.91
2023-03-17T19:01:15.517Z,101100.38
2023-03-17T19:03:22.718Z,101093.72
2023-03-17T19:05:28.702Z,101086.78
2023-03-17T19:07:32.654Z,101088.25
2023-03-17T19:09:36.582Z,101087.38
2023-03-17T19:11:40.878Z,101088.09
2023-03-17T19:13:45.729Z,101090.41
2023-03-17T19:15:49.448Z,101083.34
2023-03-17T19:17:53.967Z,101095.66
2023-03-17T19:19:59.177Z,101093.19
2023-03-17T19:22:02.560Z,101089.84
2023-03-17T19:24:06.594Z,101082.31
2023-03-17T19:26:12.174Z,101079.31
2023-03-17T19:28:16.280Z,101089.94
2023-03-17T19:30:22.805Z,101086.44
2023-03-17T19:32:37.858Z,101080.06
2023-03-17T19:34:41.921Z,101084.47
2023-03-17T19:36:47.815Z,101078.50
2023-03-17T19:38:52.390Z,101086.03
2023-03-17T19:40:56.381Z,101054.59
2023-03-17T19:43:01.709Z,101073.06
2023-03-17T19:45:06.911Z,101077.44
2023-03-17T19:47:10.818Z,101074.97
2023-03-17T19:49:15.705Z,101081.75
2023-03-17T19:51:20.326Z,101066.72
2023-03-17T19:53:24.396Z,101072.59
2023-03-17T19:55:29.919Z,101069.06
2023-03-17T19:57:33.722Z,101070.75
2023-03-17T19:59:38.136Z,101064.94
2023-03-17T20:01:42.923Z,101054.41
2023-03-17T20:03:47.080Z,101051.81
2023-03-17T20:05:53.360Z,101053.41
2023-03-17T20:07:56.558Z,101043.09
2023-03-17T20:10:02.000Z,101044.50
2023-03-17T20:12:05.763Z,101049.03
2023-03-17T20:14:12.461Z,101043.78
2023-03-17T20:16:22.713Z,101044.81
2023-03-17T20:18:29.509Z,101048.31
2023-03-17T20:20:35.499Z,101050.22
2023-03-17T20:22:41.813Z,101045.19
2023-03-17T20:24:45.567Z,101050.47
2023-03-17T20:26:49.820Z,101038.97
2023-03-17T20:28:54.361Z,101041.69
2023-03-17T20:31:01.666Z,101040.84
2023-03-17T20:33:06.748Z,101047.56
2023-03-17T20:35:10.630Z,101040.56
2023-03-17T20:37:15.245Z,101032.50
2023-03-17T20:39:21.872Z,101040.47
2023-03-17T20:41:25.332Z,101037.09
2023-03-17T20:43:28.128Z,101026.91
2023-03-17T20:45:31.815Z,101045.06
2023-03-17T20:47:36.743Z,101048.47
2023-03-17T20:49:40.181Z,101050.50
2023-03-17T20:51:44.326Z,101048.09
2023-03-17T20:53:50.593Z,101050.63
2023-03-17T20:55:55.684Z,101047.91
2023-03-17T20:58:02.369Z,101051.41
2023-03-17T21:00:20.418Z,101049.72
2023-03-17T21:02:24.969Z,101045.34
2023-03-17T21:04:28.034Z,101037.56
2023-03-17T21:06:33.049Z,101041.97
2023-03-17T21:08:37.285Z,101035.12
2023-03-17T21:10:40.995Z,101042.94
2023-03-17T21:12:46.117Z,101038.62
2023-03-17T21:14:50.750Z,101038.88
2023-03-17T21:16:53.723Z,101031.25
2023-03-17T21:18:57.230Z,101030.53
2023-03-17T21:20:59.895Z,101029.47
2023-03-17T21:23:04.780Z,101032.19
2023-03-17T21:25:10.195Z,101027.78
2023-03-17T21:27:14.281Z,101027.00
2023-03-17T21:29:17.096Z,101028.88
2023-03-17T21:31:20.213Z,101024.66
2023-03-17T21:33:23.028Z,101028.06
2023-03-17T21:35:25.505Z,101023.03
2023-03-17T21:37:28.485Z,101013.50
2023-03-17T21:39:32.876Z,101014.44
2023-03-17T21:41:37.936Z,101009.94
2023-03-17T21:43:41.182Z,101023.16
2023-03-17T21:45:44.470Z,101020.50
2023-03-17T21:47:47.279Z,101014.56
2023-03-17T21:49:50.328Z,101011.06
2023-03-17T21:51:52.896Z,101019.53
2023-03-17T21:53:57.551Z,101024.72
2023-03-17T21:56:00.329Z,101019.69
2023-03-17T21:58:02.691Z,101014.53
2023-03-17T22:00:08.057Z,101027.16
2023-03-17T22:02:17.609Z,101027.03
2023-03-17T22:04:20.248Z,101026.09
2023-03-17T22:06:23.274Z,101024.22
2023-03-17T22:08:26.429Z,101027.78
2023-03-17T22:10:29.297Z,101032.53
2023-03-17T22:12:31.747Z,101035.34
2023-03-17T22:14:35.717Z,101018.66
2023-03-17T22:16:38.682Z,101034.13
2023-03-17T22:18:41.981Z,101025.69
2023-03-17T22:20:45.575Z,101025.84
2023-03-17T22:22:48.234Z,101032.72
2023-03-17T22:24:50.725Z,101031.03
2023-03-17T22:26:53.471Z,101031.22
2023-03-17T22:28:56.124Z,101026.13
2023-03-17T22:30:58.489Z,101025.41
2023-03-17T22:33:00.830Z,101028.53
2023-03-17T22:35:04.389Z,101024.28
2023-03-17T22:37:07.808Z,101028.44
2023-03-17T22:39:10.864Z,101025.84
2023-03-17T22:41:17.018Z,101027.88
2023-03-17T22:43:19.354Z,101028.91
2023-03-17T22:45:22.289Z,101027.81
2023-03-17T22:47:25.500Z,101022.47
2023-03-17T22:49:27.870Z,101020.78
2023-03-17T22:51:30.585Z,101024.09
2023-03-17T22:53:33.468Z,101015.16
2023-03-17T22:55:36.487Z,101016.13
2023-03-17T22:57:38.886Z,101014.44
2023-03-17T22:59:41.525Z,101013.53
2023-03-17T23:01:43.919Z,101012.72
2023-03-17T23:03:47.079Z,101011.72
2023-03-17T23:05:52.379Z,101018.69
2023-03-17T23:07:55.002Z,101022.97
2023-03-17T23:09:58.030Z,101010.37
2023-03-17T23:12:01.283Z,101022.22
2023-03-17T23:14:04.428Z,101009.50
2023-03-17T23:16:08.027Z,101013.81
2023-03-17T23:18:11.044Z,101009.34
2023-03-17T23:20:14.065Z,101002.31
2023-03-17T23:22:17.057Z,101011.81
2023-03-17T23:24:19.900Z,101003.09
2023-03-17T23:26:22.810Z,101009.75
2023-03-17T23:28:25.794Z,101011.69
2023-03-17T23:30:29.335Z,101015.03
2023-03-17T23:32:31.975Z,101009.00
2023-03-17T23:34:34.635Z,101011.84
2023-03-17T23:36:40.673Z,101010.97
2023-03-17T23:38:44.195Z,101009.91
2023-03-17T23:40:47.810Z,101002.19
2023-03-17T23:42:50.694Z,101001.59
2023-03-17T23:44:53.033Z,100996.31
2023-03-17T23:46:55.592Z,101010.00
2023-03-17T23:48:58.535Z,101007.44
2023-03-17T23:51:01.215Z,101005.00
2023-03-17T23:53:03.914Z,101006.37
2023-03-17T23:55:07.976Z,100997.94
2023-03-17T23:57:10.377Z,100999.34
2023-03-17T23:59:13.059Z,100996.91
